sensor_id;sensor_type;location;lat;lon;timestamp;P1;durP1;ratioP1;P2;durP2;ratioP2
1691;SDS011;843;52.054;8.552;2022-09-21T00:01:48;7.47;;;5.10;;
1691;SDS011;843;52.054;8.552;2022-09-21T00:04:15;5.57;;;5.00;;
1691;SDS011;843;52.054;8.552;2022-09-21T00:06:42;7.33;;;5.23;;
1691;SDS011;843;52.054;8.552;2022-09-21T00:09:10;4.50;;;4.10;;
1691;SDS011;843;52.054;8.552;2022-09-21T00:11:36;4.90;;;4.40;;
1691;SDS011;843;52.054;8.552;2022-09-21T00:14:04;7.90;;;5.33;;
1691;SDS011;843;52.054;8.552;2022-09-21T00:16:32;5.43;;;4.67;;
1691;SDS011;843;52.054;8.552;2022-09-21T00:19:01;5.83;;;5.10;;
1691;SDS011;843;52.054;8.552;2022-09-21T00:21:27;5.07;;;4.57;;
1691;SDS011;843;52.054;8.552;2022-09-21T00:23:54;7.23;;;4.90;;
1691;SDS011;843;52.054;8.552;2022-09-21T00:26:22;6.27;;;5.27;;
1691;SDS011;843;52.054;8.552;2022-09-21T00:28:52;5.83;;;4.90;;
1691;SDS011;843;52.054;8.552;2022-09-21T00:31:19;6.93;;;5.00;;
1691;SDS011;843;52.054;8.552;2022-09-21T00:33:46;5.40;;;4.90;;
1691;SDS011;843;52.054;8.552;2022-09-21T00:36:15;5.40;;;4.73;;
1691;SDS011;843;52.054;8.552;2022-09-21T00:38:43;8.00;;;4.93;;
1691;SDS011;843;52.054;8.552;2022-09-21T00:41:10;7.13;;;5.57;;
1691;SDS011;843;52.054;8.552;2022-09-21T00:43:39;5.67;;;4.20;;
1691;SDS011;843;52.054;8.552;2022-09-21T00:46:10;6.30;;;4.10;;
1691;SDS011;843;52.054;8.552;2022-09-21T00:48:40;4.63;;;4.17;;
1691;SDS011;843;52.054;8.552;2022-09-21T00:51:07;6.83;;;5.00;;
1691;SDS011;843;52.054;8.552;2022-09-21T00:53:36;6.33;;;3.87;;
1691;SDS011;843;52.054;8.552;2022-09-21T00:56:04;7.83;;;4.67;;
1691;SDS011;843;52.054;8.552;2022-09-21T00:58:31;4.70;;;4.20;;
1691;SDS011;843;52.054;8.552;2022-09-21T01:00:59;5.60;;;4.30;;
1691;SDS011;843;52.054;8.552;2022-09-21T01:03:26;4.63;;;4.20;;
1691;SDS011;843;52.054;8.552;2022-09-21T01:05:56;3.67;;;3.17;;
1691;SDS011;843;52.054;8.552;2022-09-21T01:08:22;6.23;;;4.40;;
1691;SDS011;843;52.054;8.552;2022-09-21T01:10:56;5.50;;;4.07;;
1691;SDS011;843;52.054;8.552;2022-09-21T01:13:33;5.53;;;4.03;;
1691;SDS011;843;52.054;8.552;2022-09-21T01:16:09;7.23;;;4.33;;
1691;SDS011;843;52.054;8.552;2022-09-21T01:18:40;4.50;;;3.53;;
1691;SDS011;843;52.054;8.552;2022-09-21T01:21:20;6.33;;;4.10;;
1691;SDS011;843;52.054;8.552;2022-09-21T01:23:51;6.03;;;4.60;;
1691;SDS011;843;52.054;8.552;2022-09-21T01:26:30;4.80;;;3.70;;
1691;SDS011;843;52.054;8.552;2022-09-21T01:29:12;4.03;;;3.60;;
1691;SDS011;843;52.054;8.552;2022-09-21T01:31:43;4.60;;;3.77;;
1691;SDS011;843;52.054;8.552;2022-09-21T01:34:15;4.10;;;3.70;;
1691;SDS011;843;52.054;8.552;2022-09-21T01:36:45;8.30;;;3.83;;
1691;SDS011;843;52.054;8.552;2022-09-21T01:39:12;7.00;;;3.87;;
1691;SDS011;843;52.054;8.552;2022-09-21T01:41:40;7.93;;;3.70;;
1691;SDS011;843;52.054;8.552;2022-09-21T01:44:12;7.33;;;4.00;;
1691;SDS011;843;52.054;8.552;2022-09-21T01:46:40;5.77;;;4.30;;
1691;SDS011;843;52.054;8.552;2022-09-21T01:49:08;5.37;;;4.33;;
1691;SDS011;843;52.054;8.552;2022-09-21T01:51:37;4.80;;;4.10;;
1691;SDS011;843;52.054;8.552;2022-09-21T01:54:08;4.23;;;3.43;;
1691;SDS011;843;52.054;8.552;2022-09-21T01:56:38;5.60;;;4.13;;
1691;SDS011;843;52.054;8.552;2022-09-21T01:59:08;6.10;;;4.80;;
1691;SDS011;843;52.054;8.552;2022-09-21T02:01:42;5.70;;;4.67;;
1691;SDS011;843;52.054;8.552;2022-09-21T02:04:11;6.67;;;6.10;;
1691;SDS011;843;52.054;8.552;2022-09-21T02:06:39;3.70;;;3.40;;
1691;SDS011;843;52.054;8.552;2022-09-21T02:09:06;5.30;;;3.30;;
1691;SDS011;843;52.054;8.552;2022-09-21T02:11:34;4.80;;;3.70;;
1691;SDS011;843;52.054;8.552;2022-09-21T02:14:08;4.53;;;4.13;;
1691;SDS011;843;52.054;8.552;2022-09-21T02:16:36;5.07;;;3.97;;
1691;SDS011;843;52.054;8.552;2022-09-21T02:19:13;6.27;;;3.50;;
1691;SDS011;843;52.054;8.552;2022-09-21T02:21:45;3.90;;;3.60;;
1691;SDS011;843;52.054;8.552;2022-09-21T02:24:18;4.97;;;4.47;;
1691;SDS011;843;52.054;8.552;2022-09-21T02:26:52;5.67;;;5.10;;
1691;SDS011;843;52.054;8.552;2022-09-21T02:29:21;4.27;;;3.23;;
1691;SDS011;843;52.054;8.552;2022-09-21T02:31:52;6.03;;;3.90;;
1691;SDS011;843;52.054;8.552;2022-09-21T02:34:23;4.00;;;3.60;;
1691;SDS011;843;52.054;8.552;2022-09-21T02:36:57;5.30;;;4.13;;
1691;SDS011;843;52.054;8.552;2022-09-21T02:39:29;6.10;;;3.50;;
1691;SDS011;843;52.054;8.552;2022-09-21T02:42:00;5.00;;;4.00;;
1691;SDS011;843;52.054;8.552;2022-09-21T02:44:29;6.43;;;4.00;;
1691;SDS011;843;52.054;8.552;2022-09-21T02:47:00;3.47;;;3.17;;
1691;SDS011;843;52.054;8.552;2022-09-21T02:49:32;5.53;;;3.90;;
1691;SDS011;843;52.054;8.552;2022-09-21T02:52:03;5.37;;;3.70;;
1691;SDS011;843;52.054;8.552;2022-09-21T02:54:32;3.73;;;3.43;;
1691;SDS011;843;52.054;8.552;2022-09-21T02:56:59;5.07;;;3.83;;
1691;SDS011;843;52.054;8.552;2022-09-21T02:59:27;4.80;;;4.00;;
1691;SDS011;843;52.054;8.552;2022-09-21T03:01:54;4.60;;;3.70;;
1691;SDS011;843;52.054;8.552;2022-09-21T03:04:21;6.73;;;3.37;;
1691;SDS011;843;52.054;8.552;2022-09-21T03:06:49;4.20;;;3.57;;
1691;SDS011;843;52.054;8.552;2022-09-21T03:09:16;4.57;;;3.60;;
1691;SDS011;843;52.054;8.552;2022-09-21T03:11:42;3.80;;;3.43;;
1691;SDS011;843;52.054;8.552;2022-09-21T03:14:09;6.23;;;4.40;;
1691;SDS011;843;52.054;8.552;2022-09-21T03:16:36;4.93;;;3.60;;
1691;SDS011;843;52.054;8.552;2022-09-21T03:19:03;4.90;;;4.10;;
1691;SDS011;843;52.054;8.552;2022-09-21T03:21:30;4.10;;;3.17;;
1691;SDS011;843;52.054;8.552;2022-09-21T03:23:58;4.80;;;4.20;;
1691;SDS011;843;52.054;8.552;2022-09-21T03:26:25;4.10;;;3.70;;
1691;SDS011;843;52.054;8.552;2022-09-21T03:28:52;5.37;;;3.53;;
1691;SDS011;843;52.054;8.552;2022-09-21T03:31:18;6.00;;;4.37;;
1691;SDS011;843;52.054;8.552;2022-09-21T03:33:46;4.60;;;4.20;;
1691;SDS011;843;52.054;8.552;2022-09-21T03:36:13;4.90;;;4.23;;
1691;SDS011;843;52.054;8.552;2022-09-21T03:38:40;9.30;;;4.57;;
1691;SDS011;843;52.054;8.552;2022-09-21T03:41:08;4.70;;;3.97;;
1691;SDS011;843;52.054;8.552;2022-09-21T03:43:35;4.27;;;3.60;;
1691;SDS011;843;52.054;8.552;2022-09-21T03:46:01;6.40;;;4.27;;
1691;SDS011;843;52.054;8.552;2022-09-21T03:48:28;5.17;;;4.40;;
1691;SDS011;843;52.054;8.552;2022-09-21T03:50:56;5.53;;;4.60;;
1691;SDS011;843;52.054;8.552;2022-09-21T03:53:23;4.77;;;3.70;;
1691;SDS011;843;52.054;8.552;2022-09-21T03:55:51;5.43;;;3.77;;
1691;SDS011;843;52.054;8.552;2022-09-21T03:58:19;5.07;;;4.27;;
1691;SDS011;843;52.054;8.552;2022-09-21T04:00:46;5.40;;;3.97;;
1691;SDS011;843;52.054;8.552;2022-09-21T04:03:12;5.10;;;4.33;;
1691;SDS011;843;52.054;8.552;2022-09-21T04:05:39;4.77;;;3.70;;
1691;SDS011;843;52.054;8.552;2022-09-21T04:08:06;4.00;;;3.53;;
1691;SDS011;843;52.054;8.552;2022-09-21T04:10:33;6.30;;;4.23;;
1691;SDS011;843;52.054;8.552;2022-09-21T04:13:01;3.90;;;3.50;;
1691;SDS011;843;52.054;8.552;2022-09-21T04:15:30;5.63;;;4.00;;
1691;SDS011;843;52.054;8.552;2022-09-21T04:18:00;6.60;;;4.33;;
1691;SDS011;843;52.054;8.552;2022-09-21T04:20:27;4.23;;;3.80;;
1691;SDS011;843;52.054;8.552;2022-09-21T04:22:54;6.17;;;4.20;;
1691;SDS011;843;52.054;8.552;2022-09-21T04:25:20;8.37;;;4.13;;
1691;SDS011;843;52.054;8.552;2022-09-21T04:27:47;6.33;;;4.10;;
1691;SDS011;843;52.054;8.552;2022-09-21T04:30:14;11.30;;;4.43;;
1691;SDS011;843;52.054;8.552;2022-09-21T04:32:43;4.90;;;4.00;;
1691;SDS011;843;52.054;8.552;2022-09-21T04:35:10;6.30;;;3.83;;
1691;SDS011;843;52.054;8.552;2022-09-21T04:37:37;5.73;;;4.17;;
1691;SDS011;843;52.054;8.552;2022-09-21T04:40:04;6.83;;;4.77;;
1691;SDS011;843;52.054;8.552;2022-09-21T04:42:31;4.50;;;3.77;;
1691;SDS011;843;52.054;8.552;2022-09-21T04:44:58;4.77;;;4.07;;
1691;SDS011;843;52.054;8.552;2022-09-21T04:47:25;5.53;;;3.80;;
1691;SDS011;843;52.054;8.552;2022-09-21T04:49:56;4.50;;;3.80;;
1691;SDS011;843;52.054;8.552;2022-09-21T04:52:22;4.57;;;3.73;;
1691;SDS011;843;52.054;8.552;2022-09-21T04:54:49;4.23;;;3.83;;
1691;SDS011;843;52.054;8.552;2022-09-21T04:57:16;7.20;;;4.40;;
1691;SDS011;843;52.054;8.552;2022-09-21T04:59:42;5.33;;;3.90;;
1691;SDS011;843;52.054;8.552;2022-09-21T05:02:09;3.87;;;3.47;;
1691;SDS011;843;52.054;8.552;2022-09-21T05:04:36;5.60;;;4.33;;
1691;SDS011;843;52.054;8.552;2022-09-21T05:07:04;4.20;;;3.73;;
1691;SDS011;843;52.054;8.552;2022-09-21T05:09:31;5.07;;;3.63;;
1691;SDS011;843;52.054;8.552;2022-09-21T05:12:15;5.80;;;3.77;;
1691;SDS011;843;52.054;8.552;2022-09-21T05:14:41;5.67;;;4.13;;
1691;SDS011;843;52.054;8.552;2022-09-21T05:17:09;5.73;;;4.80;;
1691;SDS011;843;52.054;8.552;2022-09-21T05:19:36;4.60;;;3.73;;
1691;SDS011;843;52.054;8.552;2022-09-21T05:22:04;4.10;;;3.70;;
1691;SDS011;843;52.054;8.552;2022-09-21T05:24:30;4.33;;;3.97;;
1691;SDS011;843;52.054;8.552;2022-09-21T05:26:57;5.10;;;4.00;;
1691;SDS011;843;52.054;8.552;2022-09-21T05:29:24;4.73;;;4.20;;
1691;SDS011;843;52.054;8.552;2022-09-21T05:31:52;4.73;;;4.00;;
1691;SDS011;843;52.054;8.552;2022-09-21T05:34:24;5.60;;;4.13;;
1691;SDS011;843;52.054;8.552;2022-09-21T05:36:57;4.33;;;3.90;;
1691;SDS011;843;52.054;8.552;2022-09-21T05:39:29;7.00;;;4.43;;
1691;SDS011;843;52.054;8.552;2022-09-21T05:41:56;7.47;;;4.40;;
1691;SDS011;843;52.054;8.552;2022-09-21T05:44:23;4.47;;;4.07;;
1691;SDS011;843;52.054;8.552;2022-09-21T05:46:52;5.30;;;4.73;;
1691;SDS011;843;52.054;8.552;2022-09-21T05:49:24;4.43;;;4.03;;
1691;SDS011;843;52.054;8.552;2022-09-21T05:51:59;5.00;;;4.50;;
1691;SDS011;843;52.054;8.552;2022-09-21T05:54:34;6.70;;;4.20;;
1691;SDS011;843;52.054;8.552;2022-09-21T05:57:09;7.10;;;5.37;;
1691;SDS011;843;52.054;8.552;2022-09-21T05:59:42;7.80;;;5.10;;
1691;SDS011;843;52.054;8.552;2022-09-21T06:02:17;6.10;;;5.50;;
1691;SDS011;843;52.054;8.552;2022-09-21T06:04:48;6.20;;;4.67;;
1691;SDS011;843;52.054;8.552;2022-09-21T06:07:16;5.53;;;4.00;;
1691;SDS011;843;52.054;8.552;2022-09-21T06:09:44;7.63;;;3.50;;
1691;SDS011;843;52.054;8.552;2022-09-21T06:12:10;3.60;;;3.30;;
1691;SDS011;843;52.054;8.552;2022-09-21T06:14:37;4.00;;;3.30;;
1691;SDS011;843;52.054;8.552;2022-09-21T06:17:04;3.90;;;3.50;;
1691;SDS011;843;52.054;8.552;2022-09-21T06:19:30;3.87;;;2.97;;
1691;SDS011;843;52.054;8.552;2022-09-21T06:21:57;7.63;;;3.10;;
1691;SDS011;843;52.054;8.552;2022-09-21T06:24:24;3.77;;;3.10;;
1691;SDS011;843;52.054;8.552;2022-09-21T06:26:52;4.60;;;3.33;;
1691;SDS011;843;52.054;8.552;2022-09-21T06:29:19;4.13;;;3.10;;
1691;SDS011;843;52.054;8.552;2022-09-21T06:31:47;4.50;;;3.27;;
1691;SDS011;843;52.054;8.552;2022-09-21T06:34:14;3.73;;;3.43;;
1691;SDS011;843;52.054;8.552;2022-09-21T06:36:41;5.93;;;3.00;;
1691;SDS011;843;52.054;8.552;2022-09-21T06:39:09;5.40;;;3.60;;
1691;SDS011;843;52.054;8.552;2022-09-21T06:41:36;4.00;;;3.10;;
1691;SDS011;843;52.054;8.552;2022-09-21T06:44:04;3.70;;;3.13;;
1691;SDS011;843;52.054;8.552;2022-09-21T06:46:30;6.37;;;3.80;;
1691;SDS011;843;52.054;8.552;2022-09-21T06:48:57;4.27;;;3.50;;
1691;SDS011;843;52.054;8.552;2022-09-21T06:51:24;5.80;;;3.30;;
1691;SDS011;843;52.054;8.552;2022-09-21T06:53:53;9.27;;;3.40;;
1691;SDS011;843;52.054;8.552;2022-09-21T06:56:20;3.33;;;3.03;;
1691;SDS011;843;52.054;8.552;2022-09-21T06:58:46;4.50;;;3.60;;
1691;SDS011;843;52.054;8.552;2022-09-21T07:01:14;6.60;;;3.27;;
1691;SDS011;843;52.054;8.552;2022-09-21T07:03:42;4.17;;;2.97;;
1691;SDS011;843;52.054;8.552;2022-09-21T07:06:09;4.30;;;3.50;;
1691;SDS011;843;52.054;8.552;2022-09-21T07:08:38;4.33;;;3.17;;
1691;SDS011;843;52.054;8.552;2022-09-21T07:11:05;5.23;;;3.50;;
1691;SDS011;843;52.054;8.552;2022-09-21T07:13:31;3.90;;;3.50;;
1691;SDS011;843;52.054;8.552;2022-09-21T07:16:01;5.67;;;3.67;;
1691;SDS011;843;52.054;8.552;2022-09-21T07:18:30;5.70;;;4.13;;
1691;SDS011;843;52.054;8.552;2022-09-21T07:20:57;3.67;;;3.33;;
1691;SDS011;843;52.054;8.552;2022-09-21T07:23:27;7.50;;;3.70;;
1691;SDS011;843;52.054;8.552;2022-09-21T07:25:54;5.73;;;4.47;;
1691;SDS011;843;52.054;8.552;2022-09-21T07:28:20;4.30;;;3.50;;
1691;SDS011;843;52.054;8.552;2022-09-21T07:30:47;4.93;;;3.83;;
1691;SDS011;843;52.054;8.552;2022-09-21T07:33:13;4.83;;;3.90;;
1691;SDS011;843;52.054;8.552;2022-09-21T07:35:48;5.43;;;4.40;;
1691;SDS011;843;52.054;8.552;2022-09-21T07:38:15;6.80;;;4.07;;
1691;SDS011;843;52.054;8.552;2022-09-21T07:40:42;5.37;;;4.50;;
1691;SDS011;843;52.054;8.552;2022-09-21T07:43:09;5.90;;;3.93;;
1691;SDS011;843;52.054;8.552;2022-09-21T07:45:35;5.00;;;3.63;;
1691;SDS011;843;52.054;8.552;2022-09-21T07:48:02;4.97;;;3.20;;
1691;SDS011;843;52.054;8.552;2022-09-21T07:50:30;4.20;;;3.80;;
1691;SDS011;843;52.054;8.552;2022-09-21T07:52:59;5.90;;;3.90;;
1691;SDS011;843;52.054;8.552;2022-09-21T07:55:25;7.00;;;4.10;;
1691;SDS011;843;52.054;8.552;2022-09-21T07:57:52;4.00;;;3.60;;
1691;SDS011;843;52.054;8.552;2022-09-21T08:00:36;5.00;;;3.70;;
1691;SDS011;843;52.054;8.552;2022-09-21T08:03:03;4.00;;;3.60;;
1691;SDS011;843;52.054;8.552;2022-09-21T08:05:30;5.40;;;3.80;;
1691;SDS011;843;52.054;8.552;2022-09-21T08:07:58;6.80;;;3.87;;
1691;SDS011;843;52.054;8.552;2022-09-21T08:10:25;6.10;;;3.43;;
1691;SDS011;843;52.054;8.552;2022-09-21T08:12:52;5.93;;;3.80;;
1691;SDS011;843;52.054;8.552;2022-09-21T08:15:18;3.97;;;2.90;;
1691;SDS011;843;52.054;8.552;2022-09-21T08:17:45;3.80;;;3.40;;
1691;SDS011;843;52.054;8.552;2022-09-21T08:20:12;4.73;;;3.53;;
1691;SDS011;843;52.054;8.552;2022-09-21T08:22:39;5.30;;;3.80;;
1691;SDS011;843;52.054;8.552;2022-09-21T08:25:08;4.23;;;3.83;;
1691;SDS011;843;52.054;8.552;2022-09-21T08:27:35;4.70;;;4.03;;
1691;SDS011;843;52.054;8.552;2022-09-21T08:30:05;7.00;;;4.13;;
1691;SDS011;843;52.054;8.552;2022-09-21T08:32:32;6.27;;;3.77;;
1691;SDS011;843;52.054;8.552;2022-09-21T08:34:59;6.80;;;4.60;;
1691;SDS011;843;52.054;8.552;2022-09-21T08:37:26;5.80;;;3.63;;
1691;SDS011;843;52.054;8.552;2022-09-21T08:39:53;5.30;;;3.90;;
1691;SDS011;843;52.054;8.552;2022-09-21T08:42:27;6.00;;;3.60;;
1691;SDS011;843;52.054;8.552;2022-09-21T08:45:05;3.70;;;3.40;;
1691;SDS011;843;52.054;8.552;2022-09-21T08:47:37;6.33;;;3.70;;
1691;SDS011;843;52.054;8.552;2022-09-21T08:50:11;5.73;;;3.40;;
1691;SDS011;843;52.054;8.552;2022-09-21T08:52:45;3.47;;;3.13;;
1691;SDS011;843;52.054;8.552;2022-09-21T08:55:14;5.27;;;3.40;;
1691;SDS011;843;52.054;8.552;2022-09-21T08:57:46;6.73;;;3.00;;
1691;SDS011;843;52.054;8.552;2022-09-21T09:00:13;6.27;;;3.30;;
1691;SDS011;843;52.054;8.552;2022-09-21T09:02:49;6.10;;;3.17;;
1691;SDS011;843;52.054;8.552;2022-09-21T09:05:32;4.23;;;3.27;;
1691;SDS011;843;52.054;8.552;2022-09-21T09:08:17;4.07;;;3.23;;
1691;SDS011;843;52.054;8.552;2022-09-21T09:11:07;4.00;;;2.50;;
1691;SDS011;843;52.054;8.552;2022-09-21T09:16:28;5.60;;;2.63;;
1691;SDS011;843;52.054;8.552;2022-09-21T09:19:00;4.60;;;2.60;;
1691;SDS011;843;52.054;8.552;2022-09-21T09:21:33;4.80;;;2.23;;
1691;SDS011;843;52.054;8.552;2022-09-21T09:24:03;7.30;;;2.57;;
1691;SDS011;843;52.054;8.552;2022-09-21T09:26:33;4.00;;;2.23;;
1691;SDS011;843;52.054;8.552;2022-09-21T09:29:10;5.13;;;2.37;;
1691;SDS011;843;52.054;8.552;2022-09-21T09:31:39;4.67;;;1.93;;
1691;SDS011;843;52.054;8.552;2022-09-21T09:34:08;5.13;;;1.70;;
1691;SDS011;843;52.054;8.552;2022-09-21T09:36:37;5.73;;;2.60;;
1691;SDS011;843;52.054;8.552;2022-09-21T09:39:09;7.90;;;2.53;;
1691;SDS011;843;52.054;8.552;2022-09-21T09:41:45;8.30;;;2.03;;
1691;SDS011;843;52.054;8.552;2022-09-21T09:44:29;5.60;;;2.10;;
1691;SDS011;843;52.054;8.552;2022-09-21T09:47:07;4.07;;;1.80;;
1691;SDS011;843;52.054;8.552;2022-09-21T09:49:43;3.17;;;1.70;;
1691;SDS011;843;52.054;8.552;2022-09-21T09:52:17;5.07;;;1.87;;
1691;SDS011;843;52.054;8.552;2022-09-21T09:54:44;4.97;;;1.60;;
1691;SDS011;843;52.054;8.552;2022-09-21T09:57:11;7.03;;;1.90;;
1691;SDS011;843;52.054;8.552;2022-09-21T09:59:40;5.47;;;1.00;;
1691;SDS011;843;52.054;8.552;2022-09-21T10:02:17;8.80;;;1.60;;
1691;SDS011;843;52.054;8.552;2022-09-21T10:04:53;3.90;;;1.23;;
1691;SDS011;843;52.054;8.552;2022-09-21T10:07:37;3.03;;;1.10;;
1691;SDS011;843;52.054;8.552;2022-09-21T10:12:56;5.00;;;1.30;;
1691;SDS011;843;52.054;8.552;2022-09-21T10:15:29;4.10;;;0.97;;
1691;SDS011;843;52.054;8.552;2022-09-21T10:17:56;4.90;;;1.10;;
1691;SDS011;843;52.054;8.552;2022-09-21T10:20:27;4.33;;;1.20;;
1691;SDS011;843;52.054;8.552;2022-09-21T10:22:55;3.20;;;1.40;;
1691;SDS011;843;52.054;8.552;2022-09-21T10:25:21;7.10;;;1.60;;
1691;SDS011;843;52.054;8.552;2022-09-21T10:27:48;5.13;;;1.00;;
1691;SDS011;843;52.054;8.552;2022-09-21T10:33:00;3.90;;;1.30;;
1691;SDS011;843;52.054;8.552;2022-09-21T10:35:27;6.00;;;1.20;;
1691;SDS011;843;52.054;8.552;2022-09-21T10:38:07;3.33;;;1.30;;
1691;SDS011;843;52.054;8.552;2022-09-21T10:40:35;4.40;;;1.60;;
1691;SDS011;843;52.054;8.552;2022-09-21T10:43:03;6.37;;;0.93;;
1691;SDS011;843;52.054;8.552;2022-09-21T10:45:30;4.97;;;1.07;;
1691;SDS011;843;52.054;8.552;2022-09-21T10:48:05;5.00;;;1.73;;
1691;SDS011;843;52.054;8.552;2022-09-21T10:50:34;4.40;;;0.93;;
1691;SDS011;843;52.054;8.552;2022-09-21T10:53:12;3.43;;;1.40;;
1691;SDS011;843;52.054;8.552;2022-09-21T10:55:47;8.00;;;1.20;;
1691;SDS011;843;52.054;8.552;2022-09-21T10:58:18;4.93;;;1.30;;
1691;SDS011;843;52.054;8.552;2022-09-21T11:00:45;3.83;;;1.03;;
1691;SDS011;843;52.054;8.552;2022-09-21T11:03:27;8.00;;;1.80;;
1691;SDS011;843;52.054;8.552;2022-09-21T11:06:04;7.17;;;1.40;;
1691;SDS011;843;52.054;8.552;2022-09-21T11:08:34;8.50;;;1.10;;
1691;SDS011;843;52.054;8.552;2022-09-21T11:11:07;3.80;;;1.17;;
1691;SDS011;843;52.054;8.552;2022-09-21T11:13:45;3.77;;;1.23;;
1691;SDS011;843;52.054;8.552;2022-09-21T11:16:14;7.83;;;2.20;;
1691;SDS011;843;52.054;8.552;2022-09-21T11:18:48;7.27;;;0.97;;
1691;SDS011;843;52.054;8.552;2022-09-21T11:21:22;5.73;;;1.20;;
1691;SDS011;843;52.054;8.552;2022-09-21T11:23:55;2.40;;;1.17;;
1691;SDS011;843;52.054;8.552;2022-09-21T11:26:29;3.37;;;0.90;;
1691;SDS011;843;52.054;8.552;2022-09-21T11:29:01;4.07;;;1.00;;
1691;SDS011;843;52.054;8.552;2022-09-21T11:31:36;3.63;;;0.90;;
1691;SDS011;843;52.054;8.552;2022-09-21T11:34:18;4.30;;;0.80;;
1691;SDS011;843;52.054;8.552;2022-09-21T11:37:02;6.27;;;1.90;;
1691;SDS011;843;52.054;8.552;2022-09-21T11:39:40;4.03;;;1.00;;
1691;SDS011;843;52.054;8.552;2022-09-21T11:42:15;2.90;;;0.97;;
1691;SDS011;843;52.054;8.552;2022-09-21T11:44:50;5.53;;;0.93;;
1691;SDS011;843;52.054;8.552;2022-09-21T11:50:35;4.30;;;0.97;;
1691;SDS011;843;52.054;8.552;2022-09-21T11:53:12;3.43;;;1.17;;
1691;SDS011;843;52.054;8.552;2022-09-21T11:56:01;3.50;;;1.00;;
1691;SDS011;843;52.054;8.552;2022-09-21T11:58:58;3.10;;;1.00;;
1691;SDS011;843;52.054;8.552;2022-09-21T12:01:37;5.60;;;1.20;;
1691;SDS011;843;52.054;8.552;2022-09-21T12:04:16;2.53;;;0.83;;
1691;SDS011;843;52.054;8.552;2022-09-21T12:07:00;3.37;;;0.83;;
1691;SDS011;843;52.054;8.552;2022-09-21T12:09:40;6.33;;;1.87;;
1691;SDS011;843;52.054;8.552;2022-09-21T12:12:18;3.90;;;1.37;;
1691;SDS011;843;52.054;8.552;2022-09-21T12:14:51;5.97;;;1.37;;
1691;SDS011;843;52.054;8.552;2022-09-21T12:17:23;4.13;;;1.10;;
1691;SDS011;843;52.054;8.552;2022-09-21T12:19:56;4.23;;;1.30;;
1691;SDS011;843;52.054;8.552;2022-09-21T12:22:28;3.33;;;1.10;;
1691;SDS011;843;52.054;8.552;2022-09-21T12:25:00;3.03;;;0.80;;
1691;SDS011;843;52.054;8.552;2022-09-21T12:27:30;4.20;;;1.03;;
1691;SDS011;843;52.054;8.552;2022-09-21T12:30:01;4.10;;;1.00;;
1691;SDS011;843;52.054;8.552;2022-09-21T12:32:35;8.07;;;1.80;;
1691;SDS011;843;52.054;8.552;2022-09-21T12:35:05;6.20;;;1.00;;
1691;SDS011;843;52.054;8.552;2022-09-21T12:37:41;2.07;;;0.90;;
1691;SDS011;843;52.054;8.552;2022-09-21T12:40:14;8.13;;;1.40;;
1691;SDS011;843;52.054;8.552;2022-09-21T12:42:56;3.10;;;0.90;;
1691;SDS011;843;52.054;8.552;2022-09-21T12:45:28;3.30;;;1.10;;
1691;SDS011;843;52.054;8.552;2022-09-21T12:47:58;6.03;;;0.90;;
1691;SDS011;843;52.054;8.552;2022-09-21T12:50:30;2.67;;;0.83;;
1691;SDS011;843;52.054;8.552;2022-09-21T12:53:03;4.40;;;1.20;;
1691;SDS011;843;52.054;8.552;2022-09-21T12:55:32;3.43;;;0.73;;
1691;SDS011;843;52.054;8.552;2022-09-21T12:58:07;2.00;;;0.83;;
1691;SDS011;843;52.054;8.552;2022-09-21T13:00:45;1.80;;;0.83;;
1691;SDS011;843;52.054;8.552;2022-09-21T13:03:15;3.87;;;0.80;;
1691;SDS011;843;52.054;8.552;2022-09-21T13:05:48;2.20;;;0.67;;
1691;SDS011;843;52.054;8.552;2022-09-21T13:08:25;4.47;;;1.13;;
1691;SDS011;843;52.054;8.552;2022-09-21T13:10:57;3.83;;;1.17;;
1691;SDS011;843;52.054;8.552;2022-09-21T13:13:26;4.47;;;1.17;;
1691;SDS011;843;52.054;8.552;2022-09-21T13:15:54;3.67;;;1.00;;
1691;SDS011;843;52.054;8.552;2022-09-21T13:18:23;1.23;;;0.57;;
1691;SDS011;843;52.054;8.552;2022-09-21T13:20:52;3.73;;;0.77;;
1691;SDS011;843;52.054;8.552;2022-09-21T13:23:21;3.23;;;1.00;;
1691;SDS011;843;52.054;8.552;2022-09-21T13:25:58;2.93;;;1.00;;
1691;SDS011;843;52.054;8.552;2022-09-21T13:29:01;4.70;;;1.00;;
1691;SDS011;843;52.054;8.552;2022-09-21T13:34:23;2.40;;;0.90;;
1691;SDS011;843;52.054;8.552;2022-09-21T13:49:30;5.70;;;1.40;;
1691;SDS011;843;52.054;8.552;2022-09-21T13:52:25;3.77;;;1.20;;
1691;SDS011;843;52.054;8.552;2022-09-21T13:54:55;2.80;;;0.70;;
1691;SDS011;843;52.054;8.552;2022-09-21T13:57:24;3.10;;;1.20;;
1691;SDS011;843;52.054;8.552;2022-09-21T14:00:05;4.80;;;0.90;;
1691;SDS011;843;52.054;8.552;2022-09-21T14:02:52;2.93;;;1.23;;
1691;SDS011;843;52.054;8.552;2022-09-21T14:05:23;6.00;;;1.20;;
1691;SDS011;843;52.054;8.552;2022-09-21T14:07:53;5.67;;;1.20;;
1691;SDS011;843;52.054;8.552;2022-09-21T14:10:20;4.33;;;1.60;;
1691;SDS011;843;52.054;8.552;2022-09-21T14:12:47;4.10;;;1.13;;
1691;SDS011;843;52.054;8.552;2022-09-21T14:18:21;3.30;;;1.00;;
1691;SDS011;843;52.054;8.552;2022-09-21T14:21:08;5.73;;;1.33;;
1691;SDS011;843;52.054;8.552;2022-09-21T14:23:41;3.67;;;1.00;;
1691;SDS011;843;52.054;8.552;2022-09-21T14:26:51;4.87;;;1.23;;
1691;SDS011;843;52.054;8.552;2022-09-21T14:29:20;2.37;;;0.90;;
1691;SDS011;843;52.054;8.552;2022-09-21T14:31:51;3.77;;;0.80;;
1691;SDS011;843;52.054;8.552;2022-09-21T14:34:21;5.40;;;1.27;;
1691;SDS011;843;52.054;8.552;2022-09-21T14:36:51;0.97;;;0.50;;
1691;SDS011;843;52.054;8.552;2022-09-21T14:39:22;3.03;;;0.90;;
1691;SDS011;843;52.054;8.552;2022-09-21T14:41:52;3.13;;;1.20;;
1691;SDS011;843;52.054;8.552;2022-09-21T14:44:20;5.63;;;1.10;;
1691;SDS011;843;52.054;8.552;2022-09-21T14:46:55;3.80;;;1.10;;
1691;SDS011;843;52.054;8.552;2022-09-21T14:49:35;3.63;;;1.00;;
1691;SDS011;843;52.054;8.552;2022-09-21T14:52:09;4.13;;;1.00;;
1691;SDS011;843;52.054;8.552;2022-09-21T14:54:44;2.53;;;1.00;;
1691;SDS011;843;52.054;8.552;2022-09-21T14:57:23;4.13;;;1.10;;
1691;SDS011;843;52.054;8.552;2022-09-21T15:00:03;3.40;;;1.13;;
1691;SDS011;843;52.054;8.552;2022-09-21T15:02:40;3.50;;;1.20;;
1691;SDS011;843;52.054;8.552;2022-09-21T15:05:11;3.67;;;1.00;;
1691;SDS011;843;52.054;8.552;2022-09-21T15:07:45;4.40;;;1.20;;
1691;SDS011;843;52.054;8.552;2022-09-21T15:10:31;5.13;;;1.13;;
1691;SDS011;843;52.054;8.552;2022-09-21T15:16:19;3.33;;;1.10;;
1691;SDS011;843;52.054;8.552;2022-09-21T15:19:01;4.23;;;0.90;;
1691;SDS011;843;52.054;8.552;2022-09-21T15:21:38;5.13;;;1.00;;
1691;SDS011;843;52.054;8.552;2022-09-21T15:24:09;2.50;;;0.90;;
1691;SDS011;843;52.054;8.552;2022-09-21T15:26:43;1.93;;;0.73;;
1691;SDS011;843;52.054;8.552;2022-09-21T15:29:15;4.00;;;1.07;;
1691;SDS011;843;52.054;8.552;2022-09-21T15:31:46;2.77;;;1.00;;
1691;SDS011;843;52.054;8.552;2022-09-21T15:34:14;3.03;;;0.90;;
1691;SDS011;843;52.054;8.552;2022-09-21T15:36:41;4.70;;;1.17;;
1691;SDS011;843;52.054;8.552;2022-09-21T15:39:19;2.10;;;0.70;;
1691;SDS011;843;52.054;8.552;2022-09-21T15:41:49;3.73;;;1.20;;
1691;SDS011;843;52.054;8.552;2022-09-21T15:44:31;7.50;;;0.97;;
1691;SDS011;843;52.054;8.552;2022-09-21T15:46:58;4.60;;;1.17;;
1691;SDS011;843;52.054;8.552;2022-09-21T15:49:28;3.23;;;0.90;;
1691;SDS011;843;52.054;8.552;2022-09-21T15:51:56;4.10;;;1.10;;
1691;SDS011;843;52.054;8.552;2022-09-21T15:54:28;6.37;;;1.30;;
1691;SDS011;843;52.054;8.552;2022-09-21T15:56:57;3.60;;;1.00;;
1691;SDS011;843;52.054;8.552;2022-09-21T15:59:24;3.17;;;0.80;;
1691;SDS011;843;52.054;8.552;2022-09-21T16:01:51;5.17;;;0.97;;
1691;SDS011;843;52.054;8.552;2022-09-21T16:04:20;6.47;;;1.60;;
1691;SDS011;843;52.054;8.552;2022-09-21T16:06:58;4.50;;;1.57;;
1691;SDS011;843;52.054;8.552;2022-09-21T16:09:35;4.70;;;0.90;;
1691;SDS011;843;52.054;8.552;2022-09-21T16:14:53;5.00;;;1.23;;
1691;SDS011;843;52.054;8.552;2022-09-21T16:17:24;2.80;;;0.83;;
1691;SDS011;843;52.054;8.552;2022-09-21T16:22:49;2.87;;;0.90;;
1691;SDS011;843;52.054;8.552;2022-09-21T16:25:24;2.53;;;1.00;;
1691;SDS011;843;52.054;8.552;2022-09-21T16:27:54;2.20;;;0.90;;
1691;SDS011;843;52.054;8.552;2022-09-21T16:30:38;2.43;;;0.60;;
1691;SDS011;843;52.054;8.552;2022-09-21T16:36:32;2.63;;;0.80;;